sensor_id;sensor_type;location;lat;lon;timestamp;temperature;humidity
23532;DHT22;11943;52.270;20.978;2023-05-10T00:01:37;9.00;75.00
23532;DHT22;11943;52.270;20.978;2023-05-10T00:04:03;9.00;74.70
23532;DHT22;11943;52.270;20.978;2023-05-10T00:06:29;9.00;74.90
23532;DHT22;11943;52.270;20.978;2023-05-10T00:08:55;8.90;75.20
23532;DHT22;11943;52.270;20.978;2023-05-10T00:11:21;8.90;74.50
23532;DHT22;11943;52.270;20.978;2023-05-10T00:13:47;8.90;75.20
23532;DHT22;11943;52.270;20.978;2023-05-10T00:16:12;8.90;75.20
23532;DHT22;11943;52.270;20.978;2023-05-10T00:18:38;8.90;75.60
23532;DHT22;11943;52.270;20.978;2023-05-10T00:21:05;8.80;75.00
23532;DHT22;11943;52.270;20.978;2023-05-10T00:23:30;8.80;75.50
23532;DHT22;11943;52.270;20.978;2023-05-10T00:25:56;8.80;75.80
23532;DHT22;11943;52.270;20.978;2023-05-10T00:28:22;8.80;75.80
23532;DHT22;11943;52.270;20.978;2023-05-10T00:30:47;8.70;75.40
23532;DHT22;11943;52.270;20.978;2023-05-10T00:33:13;8.70;75.40
23532;DHT22;11943;52.270;20.978;2023-05-10T00:35:39;8.70;75.90
23532;DHT22;11943;52.270;20.978;2023-05-10T00:38:04;8.70;75.90
23532;DHT22;11943;52.270;20.978;2023-05-10T00:40:30;8.70;76.20
23532;DHT22;11943;52.270;20.978;2023-05-10T00:42:56;8.70;76.50
23532;DHT22;11943;52.270;20.978;2023-05-10T00:45:23;8.70;76.50
23532;DHT22;11943;52.270;20.978;2023-05-10T00:47:49;8.70;75.70
23532;DHT22;11943;52.270;20.978;2023-05-10T00:50:15;8.60;75.90
23532;DHT22;11943;52.270;20.978;2023-05-10T00:52:42;8.60;76.10
23532;DHT22;11943;52.270;20.978;2023-05-10T00:55:09;8.60;76.30
23532;DHT22;11943;52.270;20.978;2023-05-10T00:57:37;8.60;76.50
23532;DHT22;11943;52.270;20.978;2023-05-10T01:00:03;8.60;76.20
23532;DHT22;11943;52.270;20.978;2023-05-10T01:02:29;8.60;75.80
23532;DHT22;11943;52.270;20.978;2023-05-10T01:04:55;8.60;75.00
23532;DHT22;11943;52.270;20.978;2023-05-10T01:07:20;8.50;75.30
23532;DHT22;11943;52.270;20.978;2023-05-10T01:09:46;8.50;75.30
23532;DHT22;11943;52.270;20.978;2023-05-10T01:12:12;8.50;75.50
23532;DHT22;11943;52.270;20.978;2023-05-10T01:14:38;8.50;75.30
23532;DHT22;11943;52.270;20.978;2023-05-10T01:17:05;8.50;75.80
23532;DHT22;11943;52.270;20.978;2023-05-10T01:19:34;8.40;75.10
23532;DHT22;11943;52.270;20.978;2023-05-10T01:35:37;8.30;75.70
23532;DHT22;11943;52.270;20.978;2023-05-10T01:43:38;8.30;75.20
23532;DHT22;11943;52.270;20.978;2023-05-10T01:46:08;8.30;75.30
23532;DHT22;11943;52.270;20.978;2023-05-10T01:48:46;8.30;76.40
23532;DHT22;11943;52.270;20.978;2023-05-10T01:51:19;8.20;75.50
23532;DHT22;11943;52.270;20.978;2023-05-10T01:53:47;8.20;75.90
23532;DHT22;11943;52.270;20.978;2023-05-10T01:56:14;8.10;75.10
23532;DHT22;11943;52.270;20.978;2023-05-10T01:58:43;8.20;75.50
23532;DHT22;11943;52.270;20.978;2023-05-10T02:01:11;8.10;75.50
23532;DHT22;11943;52.270;20.978;2023-05-10T02:03:38;8.10;75.60
23532;DHT22;11943;52.270;20.978;2023-05-10T02:06:05;8.10;75.20
23532;DHT22;11943;52.270;20.978;2023-05-10T02:08:33;8.10;75.30
23532;DHT22;11943;52.270;20.978;2023-05-10T02:11:01;8.10;75.90
23532;DHT22;11943;52.270;20.978;2023-05-10T02:13:28;8.10;76.90
23532;DHT22;11943;52.270;20.978;2023-05-10T02:15:55;8.00;76.20
23532;DHT22;11943;52.270;20.978;2023-05-10T02:18:23;8.00;76.70
23532;DHT22;11943;52.270;20.978;2023-05-10T02:20:52;7.90;76.70
23532;DHT22;11943;52.270;20.978;2023-05-10T02:23:20;7.90;76.70
23532;DHT22;11943;52.270;20.978;2023-05-10T02:25:47;7.90;77.20
23532;DHT22;11943;52.270;20.978;2023-05-10T02:28:14;7.90;78.00
23532;DHT22;11943;52.270;20.978;2023-05-10T02:30:41;7.80;79.00
23532;DHT22;11943;52.270;20.978;2023-05-10T02:33:08;7.70;79.70
23532;DHT22;11943;52.270;20.978;2023-05-10T02:35:34;7.80;79.80
23532;DHT22;11943;52.270;20.978;2023-05-10T02:38:01;7.70;80.20
23532;DHT22;11943;52.270;20.978;2023-05-10T02:40:27;7.70;80.60
23532;DHT22;11943;52.270;20.978;2023-05-10T02:42:55;7.60;81.00
23532;DHT22;11943;52.270;20.978;2023-05-10T02:45:24;7.60;80.70
23532;DHT22;11943;52.270;20.978;2023-05-10T02:47:52;7.60;82.00
23532;DHT22;11943;52.270;20.978;2023-05-10T02:50:18;7.60;81.60
23532;DHT22;11943;52.270;20.978;2023-05-10T02:52:49;7.60;82.00
23532;DHT22;11943;52.270;20.978;2023-05-10T02:55:20;7.60;81.70
23532;DHT22;11943;52.270;20.978;2023-05-10T02:57:56;7.60;82.50
23532;DHT22;11943;52.270;20.978;2023-05-10T03:00:24;7.50;81.90
23532;DHT22;11943;52.270;20.978;2023-05-10T03:02:50;7.50;81.80
23532;DHT22;11943;52.270;20.978;2023-05-10T03:05:16;7.50;82.00
23532;DHT22;11943;52.270;20.978;2023-05-10T03:07:41;7.50;82.30
23532;DHT22;11943;52.270;20.978;2023-05-10T03:10:07;7.50;82.40
23532;DHT22;11943;52.270;20.978;2023-05-10T03:15:55;7.60;82.10
23532;DHT22;11943;52.270;20.978;2023-05-10T03:18:34;7.50;82.80
23532;DHT22;11943;52.270;20.978;2023-05-10T03:21:03;7.50;84.40
23532;DHT22;11943;52.270;20.978;2023-05-10T03:23:46;7.50;83.60
23532;DHT22;11943;52.270;20.978;2023-05-10T03:26:24;7.60;85.30
23532;DHT22;11943;52.270;20.978;2023-05-10T03:28:52;7.50;84.60
23532;DHT22;11943;52.270;20.978;2023-05-10T03:31:18;7.60;84.50
23532;DHT22;11943;52.270;20.978;2023-05-10T03:33:48;7.50;83.70
23532;DHT22;11943;52.270;20.978;2023-05-10T03:36:14;7.50;83.90
23532;DHT22;11943;52.270;20.978;2023-05-10T03:38:40;7.50;84.40
23532;DHT22;11943;52.270;20.978;2023-05-10T03:41:06;7.50;84.20
23532;DHT22;11943;52.270;20.978;2023-05-10T03:43:31;7.50;83.30
23532;DHT22;11943;52.270;20.978;2023-05-10T03:45:57;7.60;83.70
23532;DHT22;11943;52.270;20.978;2023-05-10T03:48:22;7.60;82.90
23532;DHT22;11943;52.270;20.978;2023-05-10T03:50:48;7.60;82.30
23532;DHT22;11943;52.270;20.978;2023-05-10T03:53:15;7.70;82.70
23532;DHT22;11943;52.270;20.978;2023-05-10T03:55:41;7.70;82.30
23532;DHT22;11943;52.270;20.978;2023-05-10T03:58:06;7.70;81.70
23532;DHT22;11943;52.270;20.978;2023-05-10T04:00:35;7.80;80.70
23532;DHT22;11943;52.270;20.978;2023-05-10T04:03:01;7.80;81.70
23532;DHT22;11943;52.270;20.978;2023-05-10T04:05:27;7.80;81.60
23532;DHT22;11943;52.270;20.978;2023-05-10T04:07:52;7.80;81.40
23532;DHT22;11943;52.270;20.978;2023-05-10T04:10:18;7.80;81.00
23532;DHT22;11943;52.270;20.978;2023-05-10T04:12:44;7.90;80.40
23532;DHT22;11943;52.270;20.978;2023-05-10T04:15:09;7.90;80.80
23532;DHT22;11943;52.270;20.978;2023-05-10T04:17:35;8.00;79.90
23532;DHT22;11943;52.270;20.978;2023-05-10T04:20:01;8.00;80.10
23532;DHT22;11943;52.270;20.978;2023-05-10T04:22:27;8.10;80.10
23532;DHT22;11943;52.270;20.978;2023-05-10T04:24:54;8.10;79.40
23532;DHT22;11943;52.270;20.978;2023-05-10T04:27:20;8.10;79.90
23532;DHT22;11943;52.270;20.978;2023-05-10T04:29:45;8.20;78.80
23532;DHT22;11943;52.270;20.978;2023-05-10T04:32:11;8.20;78.30
23532;DHT22;11943;52.270;20.978;2023-05-10T04:34:37;8.30;78.30
23532;DHT22;11943;52.270;20.978;2023-05-10T04:37:03;8.30;78.10
23532;DHT22;11943;52.270;20.978;2023-05-10T04:39:28;8.30;78.70
23532;DHT22;11943;52.270;20.978;2023-05-10T04:41:54;8.40;77.90
23532;DHT22;11943;52.270;20.978;2023-05-10T04:44:20;8.40;77.50
23532;DHT22;11943;52.270;20.978;2023-05-10T04:46:45;8.40;77.30
23532;DHT22;11943;52.270;20.978;2023-05-10T04:49:11;8.50;77.30
23532;DHT22;11943;52.270;20.978;2023-05-10T04:51:37;8.60;77.70
23532;DHT22;11943;52.270;20.978;2023-05-10T04:54:02;8.70;76.80
23532;DHT22;11943;52.270;20.978;2023-05-10T04:56:28;8.70;75.90
23532;DHT22;11943;52.270;20.978;2023-05-10T04:58:53;8.80;75.50
23532;DHT22;11943;52.270;20.978;2023-05-10T05:01:19;8.90;75.80
23532;DHT22;11943;52.270;20.978;2023-05-10T05:03:45;9.00;75.60
23532;DHT22;11943;52.270;20.978;2023-05-10T05:06:10;9.30;74.90
23532;DHT22;11943;52.270;20.978;2023-05-10T05:08:36;9.70;71.70
23532;DHT22;11943;52.270;20.978;2023-05-10T05:11:01;9.80;70.90
23532;DHT22;11943;52.270;20.978;2023-05-10T05:13:27;10.10;71.50
23532;DHT22;11943;52.270;20.978;2023-05-10T05:15:53;10.00;69.30
23532;DHT22;11943;52.270;20.978;2023-05-10T05:18:18;10.20;70.70
23532;DHT22;11943;52.270;20.978;2023-05-10T05:20:44;10.50;71.20
23532;DHT22;11943;52.270;20.978;2023-05-10T05:23:10;10.60;69.20
23532;DHT22;11943;52.270;20.978;2023-05-10T05:25:35;10.70;68.90
23532;DHT22;11943;52.270;20.978;2023-05-10T05:28:01;10.90;68.30
23532;DHT22;11943;52.270;20.978;2023-05-10T05:30:27;11.20;67.70
23532;DHT22;11943;52.270;20.978;2023-05-10T05:32:53;11.70;65.90
23532;DHT22;11943;52.270;20.978;2023-05-10T05:35:18;11.90;63.70
23532;DHT22;11943;52.270;20.978;2023-05-10T05:37:44;12.00;63.30
23532;DHT22;11943;52.270;20.978;2023-05-10T05:40:13;12.40;62.40
23532;DHT22;11943;52.270;20.978;2023-05-10T05:42:39;12.70;60.90
23532;DHT22;11943;52.270;20.978;2023-05-10T05:45:05;13.00;59.20
23532;DHT22;11943;52.270;20.978;2023-05-10T05:47:32;13.20;58.90
23532;DHT22;11943;52.270;20.978;2023-05-10T05:49:57;14.00;58.70
23532;DHT22;11943;52.270;20.978;2023-05-10T05:52:23;14.60;56.30
23532;DHT22;11943;52.270;20.978;2023-05-10T05:54:48;14.40;55.20
23532;DHT22;11943;52.270;20.978;2023-05-10T05:57:14;15.10;55.40
23532;DHT22;11943;52.270;20.978;2023-05-10T05:59:40;15.50;54.60
23532;DHT22;11943;52.270;20.978;2023-05-10T06:02:09;15.80;52.40
23532;DHT22;11943;52.270;20.978;2023-05-10T06:04:35;15.40;53.60
23532;DHT22;11943;52.270;20.978;2023-05-10T06:07:00;15.50;53.80
23532;DHT22;11943;52.270;20.978;2023-05-10T06:09:26;14.90;53.10
23532;DHT22;11943;52.270;20.978;2023-05-10T06:11:52;14.60;54.60
23532;DHT22;11943;52.270;20.978;2023-05-10T06:14:20;14.80;55.00
23532;DHT22;11943;52.270;20.978;2023-05-10T06:16:46;15.10;54.60
23532;DHT22;11943;52.270;20.978;2023-05-10T06:19:11;15.30;54.20
23532;DHT22;11943;52.270;20.978;2023-05-10T06:21:37;15.20;54.50
23532;DHT22;11943;52.270;20.978;2023-05-10T06:24:03;14.70;54.10
23532;DHT22;11943;52.270;20.978;2023-05-10T06:26:30;14.40;53.90
23532;DHT22;11943;52.270;20.978;2023-05-10T06:28:56;14.30;54.60
23532;DHT22;11943;52.270;20.978;2023-05-10T06:31:22;14.40;55.20
23532;DHT22;11943;52.270;20.978;2023-05-10T06:33:47;14.10;55.30
23532;DHT22;11943;52.270;20.978;2023-05-10T06:36:13;14.20;56.60
23532;DHT22;11943;52.270;20.978;2023-05-10T06:38:39;14.40;56.20
23532;DHT22;11943;52.270;20.978;2023-05-10T06:41:04;14.50;56.40
23532;DHT22;11943;52.270;20.978;2023-05-10T06:43:31;14.30;56.00
23532;DHT22;11943;52.270;20.978;2023-05-10T06:45:57;14.20;57.00
23532;DHT22;11943;52.270;20.978;2023-05-10T06:48:23;14.40;55.90
23532;DHT22;11943;52.270;20.978;2023-05-10T06:50:48;14.40;55.20
23532;DHT22;11943;52.270;20.978;2023-05-10T06:53:14;14.60;55.50
23532;DHT22;11943;52.270;20.978;2023-05-10T06:55:40;14.90;55.90
23532;DHT22;11943;52.270;20.978;2023-05-10T06:58:06;15.30;56.00
23532;DHT22;11943;52.270;20.978;2023-05-10T07:00:32;15.40;55.30
23532;DHT22;11943;52.270;20.978;2023-05-10T07:02:57;15.20;53.90
23532;DHT22;11943;52.270;20.978;2023-05-10T07:05:23;15.30;53.30
23532;DHT22;11943;52.270;20.978;2023-05-10T07:07:49;15.40;53.90
23532;DHT22;11943;52.270;20.978;2023-05-10T07:10:15;15.70;53.20
23532;DHT22;11943;52.270;20.978;2023-05-10T07:12:41;15.80;52.30
23532;DHT22;11943;52.270;20.978;2023-05-10T07:15:07;15.60;51.90
23532;DHT22;11943;52.270;20.978;2023-05-10T07:17:33;15.60;51.50
23532;DHT22;11943;52.270;20.978;2023-05-10T07:19:59;15.60;52.20
23532;DHT22;11943;52.270;20.978;2023-05-10T07:22:25;15.80;51.50
23532;DHT22;11943;52.270;20.978;2023-05-10T07:24:51;15.80;49.90
23532;DHT22;11943;52.270;20.978;2023-05-10T07:27:17;15.90;50.30
23532;DHT22;11943;52.270;20.978;2023-05-10T07:29:42;15.60;50.80
23532;DHT22;11943;52.270;20.978;2023-05-10T07:32:08;15.70;50.30
23532;DHT22;11943;52.270;20.978;2023-05-10T07:34:33;15.90;49.80
23532;DHT22;11943;52.270;20.978;2023-05-10T07:36:59;16.10;49.70
23532;DHT22;11943;52.270;20.978;2023-05-10T07:39:26;16.10;48.20
23532;DHT22;11943;52.270;20.978;2023-05-10T07:41:51;16.10;49.10
23532;DHT22;11943;52.270;20.978;2023-05-10T07:44:17;16.10;47.70
23532;DHT22;11943;52.270;20.978;2023-05-10T07:46:46;16.00;46.90
23532;DHT22;11943;52.270;20.978;2023-05-10T07:49:12;16.20;47.30
23532;DHT22;11943;52.270;20.978;2023-05-10T07:51:37;16.20;46.00
23532;DHT22;11943;52.270;20.978;2023-05-10T07:54:04;16.30;45.60
23532;DHT22;11943;52.270;20.978;2023-05-10T07:56:31;16.30;43.60
23532;DHT22;11943;52.270;20.978;2023-05-10T07:59:00;16.40;43.60
23532;DHT22;11943;52.270;20.978;2023-05-10T08:01:26;16.20;43.50
23532;DHT22;11943;52.270;20.978;2023-05-10T08:03:55;16.20;43.60
23532;DHT22;11943;52.270;20.978;2023-05-10T08:06:22;16.40;43.70
23532;DHT22;11943;52.270;20.978;2023-05-10T08:08:48;16.70;43.80
23532;DHT22;11943;52.270;20.978;2023-05-10T08:11:19;16.50;43.60
23532;DHT22;11943;52.270;20.978;2023-05-10T08:13:46;16.80;44.10
23532;DHT22;11943;52.270;20.978;2023-05-10T08:16:12;16.90;43.20
23532;DHT22;11943;52.270;20.978;2023-05-10T08:18:38;16.90;43.00
23532;DHT22;11943;52.270;20.978;2023-05-10T08:21:04;17.00;42.10
23532;DHT22;11943;52.270;20.978;2023-05-10T08:23:30;16.80;41.80
23532;DHT22;11943;52.270;20.978;2023-05-10T08:25:56;16.60;41.70
23532;DHT22;11943;52.270;20.978;2023-05-10T08:28:22;16.70;42.60
23532;DHT22;11943;52.270;20.978;2023-05-10T08:30:50;17.00;42.10
23532;DHT22;11943;52.270;20.978;2023-05-10T08:33:18;16.60;40.60
23532;DHT22;11943;52.270;20.978;2023-05-10T08:35:44;16.40;41.30
23532;DHT22;11943;52.270;20.978;2023-05-10T08:38:09;16.80;42.90
23532;DHT22;11943;52.270;20.978;2023-05-10T08:40:37;17.00;42.60
23532;DHT22;11943;52.270;20.978;2023-05-10T08:43:11;17.10;41.70
23532;DHT22;11943;52.270;20.978;2023-05-10T08:45:38;17.10;41.90
23532;DHT22;11943;52.270;20.978;2023-05-10T08:48:09;16.90;41.60
23532;DHT22;11943;52.270;20.978;2023-05-10T08:50:38;17.30;42.40
23532;DHT22;11943;52.270;20.978;2023-05-10T08:53:09;17.10;40.90
23532;DHT22;11943;52.270;20.978;2023-05-10T08:55:36;17.00;41.60
23532;DHT22;11943;52.270;20.978;2023-05-10T08:58:04;17.40;40.80
23532;DHT22;11943;52.270;20.978;2023-05-10T09:00:31;17.30;39.80
23532;DHT22;11943;52.270;20.978;2023-05-10T09:02:58;17.40;39.00
23532;DHT22;11943;52.270;20.978;2023-05-10T09:05:24;17.40;39.10
23532;DHT22;11943;52.270;20.978;2023-05-10T09:07:50;17.60;40.40
23532;DHT22;11943;52.270;20.978;2023-05-10T09:10:16;17.50;40.50
23532;DHT22;11943;52.270;20.978;2023-05-10T09:12:42;17.40;39.90
23532;DHT22;11943;52.270;20.978;2023-05-10T09:15:09;17.40;40.10
23532;DHT22;11943;52.270;20.978;2023-05-10T09:17:36;17.50;39.80
23532;DHT22;11943;52.270;20.978;2023-05-10T09:20:05;17.90;40.90
23532;DHT22;11943;52.270;20.978;2023-05-10T09:22:31;17.50;38.90
23532;DHT22;11943;52.270;20.978;2023-05-10T09:25:06;17.60;40.00
23532;DHT22;11943;52.270;20.978;2023-05-10T09:27:33;17.50;39.70
23532;DHT22;11943;52.270;20.978;2023-05-10T09:29:59;17.70;39.50
23532;DHT22;11943;52.270;20.978;2023-05-10T09:32:45;17.30;38.30
23532;DHT22;11943;52.270;20.978;2023-05-10T09:37:40;17.60;40.60
23532;DHT22;11943;52.270;20.978;2023-05-10T09:40:15;17.90;40.10
23532;DHT22;11943;52.270;20.978;2023-05-10T09:42:49;18.00;38.80
23532;DHT22;11943;52.270;20.978;2023-05-10T09:45:15;18.10;39.00
23532;DHT22;11943;52.270;20.978;2023-05-10T09:47:41;18.10;39.50
23532;DHT22;11943;52.270;20.978;2023-05-10T09:50:07;17.80;38.70
23532;DHT22;11943;52.270;20.978;2023-05-10T09:55:45;18.00;40.80
23532;DHT22;11943;52.270;20.978;2023-05-10T09:58:12;18.10;39.40
23532;DHT22;11943;52.270;20.978;2023-05-10T10:00:39;17.80;40.20
23532;DHT22;11943;52.270;20.978;2023-05-10T10:03:06;18.00;40.60
23532;DHT22;11943;52.270;20.978;2023-05-10T10:05:34;17.90;39.30
23532;DHT22;11943;52.270;20.978;2023-05-10T10:08:03;17.70;39.50
23532;DHT22;11943;52.270;20.978;2023-05-10T10:10:31;17.90;40.80
23532;DHT22;11943;52.270;20.978;2023-05-10T10:12:57;18.00;40.50
23532;DHT22;11943;52.270;20.978;2023-05-10T10:15:23;17.90;39.90
23532;DHT22;11943;52.270;20.978;2023-05-10T10:17:51;18.00;40.20
23532;DHT22;11943;52.270;20.978;2023-05-10T10:20:18;17.70;39.20
23532;DHT22;11943;52.270;20.978;2023-05-10T10:22:45;18.00;40.00
23532;DHT22;11943;52.270;20.978;2023-05-10T10:25:13;18.30;39.90
23532;DHT22;11943;52.270;20.978;2023-05-10T10:30:41;18.30;39.40
23532;DHT22;11943;52.270;20.978;2023-05-10T10:36:12;18.80;38.50
23532;DHT22;11943;52.270;20.978;2023-05-10T10:41:35;18.10;38.70
23532;DHT22;11943;52.270;20.978;2023-05-10T10:50:03;18.60;38.20
23532;DHT22;11943;52.270;20.978;2023-05-10T10:52:38;18.20;37.90
23532;DHT22;11943;52.270;20.978;2023-05-10T10:57:52;18.60;39.10
23532;DHT22;11943;52.270;20.978;2023-05-10T11:05:41;18.40;38.30
23532;DHT22;11943;52.270;20.978;2023-05-10T11:08:09;18.30;37.70
23532;DHT22;11943;52.270;20.978;2023-05-10T11:10:34;18.60;38.60
23532;DHT22;11943;52.270;20.978;2023-05-10T11:13:02;18.70;38.50
23532;DHT22;11943;52.270;20.978;2023-05-10T11:15:37;18.50;36.30
23532;DHT22;11943;52.270;20.978;2023-05-10T11:18:20;18.30;36.70
23532;DHT22;11943;52.270;20.978;2023-05-10T11:20:59;18.60;38.00
23532;DHT22;11943;52.270;20.978;2023-05-10T11:23:54;18.20;37.60
23532;DHT22;11943;52.270;20.978;2023-05-10T11:26:25;18.20;37.80
23532;DHT22;11943;52.270;20.978;2023-05-10T11:28:53;18.10;37.60
23532;DHT22;11943;52.270;20.978;2023-05-10T11:31:20;18.40;38.10
23532;DHT22;11943;52.270;20.978;2023-05-10T11:33:54;18.90;39.10
23532;DHT22;11943;52.270;20.978;2023-05-10T11:36:25;19.20;37.90
23532;DHT22;11943;52.270;20.978;2023-05-10T11:38:52;19.10;37.00
23532;DHT22;11943;52.270;20.978;2023-05-10T11:41:18;18.90;37.40
23532;DHT22;11943;52.270;20.978;2023-05-10T11:43:49;18.60;36.40
23532;DHT22;11943;52.270;20.978;2023-05-10T11:46:17;18.60;37.60
23532;DHT22;11943;52.270;20.978;2023-05-10T11:48:43;18.50;37.80
23532;DHT22;11943;52.270;20.978;2023-05-10T11:51:10;18.60;37.80
23532;DHT22;11943;52.270;20.978;2023-05-10T11:53:36;18.40;38.20
23532;DHT22;11943;52.270;20.978;2023-05-10T11:56:07;18.70;38.40
23532;DHT22;11943;52.270;20.978;2023-05-10T11:58:35;18.90;38.50
23532;DHT22;11943;52.270;20.978;2023-05-10T12:01:01;18.60;37.50
23532;DHT22;11943;52.270;20.978;2023-05-10T12:03:28;18.70;37.60
23532;DHT22;11943;52.270;20.978;2023-05-10T12:05:55;18.50;37.50
23532;DHT22;11943;52.270;20.978;2023-05-10T12:08:23;18.80;38.10
23532;DHT22;11943;52.270;20.978;2023-05-10T12:10:49;19.30;39.50
23532;DHT22;11943;52.270;20.978;2023-05-10T12:13:15;19.10;37.30
23532;DHT22;11943;52.270;20.978;2023-05-10T12:15:42;18.90;37.20
23532;DHT22;11943;52.270;20.978;2023-05-10T12:18:11;19.00;38.10
23532;DHT22;11943;52.270;20.978;2023-05-10T12:20:38;19.10;37.80
23532;DHT22;11943;52.270;20.978;2023-05-10T12:23:04;19.00;37.60
23532;DHT22;11943;52.270;20.978;2023-05-10T12:25:32;19.00;37.60
23532;DHT22;11943;52.270;20.978;2023-05-10T12:27:58;19.00;36.90
23532;DHT22;11943;52.270;20.978;2023-05-10T12:30:27;19.10;37.40
23532;DHT22;11943;52.270;20.978;2023-05-10T12:32:54;18.70;36.50
23532;DHT22;11943;52.270;20.978;2023-05-10T12:35:24;19.10;38.10
23532;DHT22;11943;52.270;20.978;2023-05-10T12:37:53;19.20;37.50
23532;DHT22;11943;52.270;20.978;2023-05-10T12:40:18;19.20;37.40
23532;DHT22;11943;52.270;20.978;2023-05-10T12:42:44;18.90;37.10
23532;DHT22;11943;52.270;20.978;2023-05-10T12:45:14;18.70;37.40
23532;DHT22;11943;52.270;20.978;2023-05-10T12:47:40;18.90;37.60
23532;DHT22;11943;52.270;20.978;2023-05-10T12:50:06;19.10;37.60
23532;DHT22;11943;52.270;20.978;2023-05-10T12:52:32;19.00;36.80
23532;DHT22;11943;52.270;20.978;2023-05-10T12:54:59;19.20;36.90
23532;DHT22;11943;52.270;20.978;2023-05-10T12:57:25;19.20;37.00
23532;DHT22;11943;52.270;20.978;2023-05-10T12:59:50;19.00;37.70
23532;DHT22;11943;52.270;20.978;2023-05-10T13:02:16;19.10;38.30
23532;DHT22;11943;52.270;20.978;2023-05-10T13:04:46;19.10;37.80
23532;DHT22;11943;52.270;20.978;2023-05-10T13:07:12;19.00;38.00
23532;DHT22;11943;52.270;20.978;2023-05-10T13:09:38;19.10;38.00
23532;DHT22;11943;52.270;20.978;2023-05-10T13:12:04;19.00;38.80
23532;DHT22;11943;52.270;20.978;2023-05-10T13:14:30;19.00;38.50
23532;DHT22;11943;52.270;20.978;2023-05-10T13:16:56;18.90;38.00
23532;DHT22;11943;52.270;20.978;2023-05-10T13:19:22;19.30;39.00
23532;DHT22;11943;52.270;20.978;2023-05-10T13:21:48;19.60;38.70
23532;DHT22;11943;52.270;20.978;2023-05-10T13:24:13;19.90;39.50
23532;DHT22;11943;52.270;20.978;2023-05-10T13:26:42;19.40;37.30
23532;DHT22;11943;52.270;20.978;2023-05-10T13:29:08;19.00;37.70
23532;DHT22;11943;52.270;20.978;2023-05-10T13:31:34;18.80;38.40
23532;DHT22;11943;52.270;20.978;2023-05-10T13:34:00;18.60;38.30
23532;DHT22;11943;52.270;20.978;2023-05-10T13:36:26;18.60;38.40
23532;DHT22;11943;52.270;20.978;2023-05-10T13:38:51;18.60;38.90
23532;DHT22;11943;52.270;20.978;2023-05-10T13:41:17;18.70;39.30
23532;DHT22;11943;52.270;20.978;2023-05-10T13:43:43;19.10;39.10
23532;DHT22;11943;52.270;20.978;2023-05-10T13:46:08;19.00;39.20
23532;DHT22;11943;52.270;20.978;2023-05-10T13:48:34;18.90;38.30
23532;DHT22;11943;52.270;20.978;2023-05-10T13:51:01;19.00;41.00
23532;DHT22;11943;52.270;20.978;2023-05-10T13:53:27;19.10;39.60
23532;DHT22;11943;52.270;20.978;2023-05-10T13:55:53;19.10;39.30
23532;DHT22;11943;52.270;20.978;2023-05-10T13:58:18;19.10;39.20
23532;DHT22;11943;52.270;20.978;2023-05-10T14:00:44;18.90;39.00
23532;DHT22;11943;52.270;20.978;2023-05-10T14:03:10;18.60;38.90
23532;DHT22;11943;52.270;20.978;2023-05-10T14:05:36;18.70;39.40
23532;DHT22;11943;52.270;20.978;2023-05-10T14:08:02;18.80;39.40
23532;DHT22;11943;52.270;20.978;2023-05-10T14:10:28;18.80;39.30
23532;DHT22;11943;52.270;20.978;2023-05-10T14:12:54;18.90;38.70
23532;DHT22;11943;52.270;20.978;2023-05-10T14:15:19;19.20;39.60
23532;DHT22;11943;52.270;20.978;2023-05-10T14:17:45;19.10;38.40
23532;DHT22;11943;52.270;20.978;2023-05-10T14:20:11;19.00;38.90
23532;DHT22;11943;52.270;20.978;2023-05-10T14:22:37;19.20;39.00
23532;DHT22;11943;52.270;20.978;2023-05-10T14:25:03;19.20;39.00
23532;DHT22;11943;52.270;20.978;2023-05-10T14:27:28;19.20;39.00
23532;DHT22;11943;52.270;20.978;2023-05-10T14:29:54;19.40;39.60
23532;DHT22;11943;52.270;20.978;2023-05-10T14:32:20;19.60;40.40
23532;DHT22;11943;52.270;20.978;2023-05-10T14:34:46;19.10;37.20
23532;DHT22;11943;52.270;20.978;2023-05-10T14:37:13;19.00;39.00
23532;DHT22;11943;52.270;20.978;2023-05-10T14:39:39;18.90;38.00
23532;DHT22;11943;52.270;20.978;2023-05-10T14:42:04;18.80;38.00
23532;DHT22;11943;52.270;20.978;2023-05-10T14:44:30;18.70;38.20
23532;DHT22;11943;52.270;20.978;2023-05-10T14:46:55;18.70;38.30
23532;DHT22;11943;52.270;20.978;2023-05-10T14:49:22;18.70;38.30
23532;DHT22;11943;52.270;20.978;2023-05-10T14:51:50;18.60;37.90
23532;DHT22;11943;52.270;20.978;2023-05-10T14:54:15;18.70;38.10
23532;DHT22;11943;52.270;20.978;2023-05-10T14:56:41;18.50;37.60
23532;DHT22;11943;52.270;20.978;2023-05-10T14:59:07;18.50;39.00
23532;DHT22;11943;52.270;20.978;2023-05-10T15:01:33;18.50;38.70
23532;DHT22;11943;52.270;20.978;2023-05-10T15:04:03;18.50;38.30
23532;DHT22;11943;52.270;20.978;2023-05-10T15:06:35;18.40;39.00
23532;DHT22;11943;52.270;20.978;2023-05-10T15:09:01;18.70;40.60
23532;DHT22;11943;52.270;20.978;2023-05-10T15:11:28;18.70;38.70
23532;DHT22;11943;52.270;20.978;2023-05-10T15:13:54;18.40;38.10
23532;DHT22;11943;52.270;20.978;2023-05-10T15:16:20;18.40;39.10
23532;DHT22;11943;52.270;20.978;2023-05-10T15:18:46;18.40;38.90
23532;DHT22;11943;52.270;20.978;2023-05-10T15:21:12;18.30;39.60
23532;DHT22;11943;52.270;20.978;2023-05-10T15:23:38;18.30;39.90
23532;DHT22;11943;52.270;20.978;2023-05-10T15:26:03;18.40;39.30
23532;DHT22;11943;52.270;20.978;2023-05-10T15:28:29;18.40;39.10
23532;DHT22;11943;52.270;20.978;2023-05-10T15:30:55;18.30;38.70
23532;DHT22;11943;52.270;20.978;2023-05-10T15:33:21;18.20;38.60
23532;DHT22;11943;52.270;20.978;2023-05-10T15:35:47;18.20;38.90
23532;DHT22;11943;52.270;20.978;2023-05-10T15:38:13;18.00;39.50
23532;DHT22;11943;52.270;20.978;2023-05-10T15:40:39;18.00;39.80
23532;DHT22;11943;52.270;20.978;2023-05-10T15:43:05;17.90;39.80
23532;DHT22;11943;52.270;20.978;2023-05-10T15:45:30;17.80;40.30
23532;DHT22;11943;52.270;20.978;2023-05-10T15:47:57;17.80;40.10
23532;DHT22;11943;52.270;20.978;2023-05-10T15:50:22;17.80;39.80
23532;DHT22;11943;52.270;20.978;2023-05-10T15:52:48;17.90;39.80
23532;DHT22;11943;52.270;20.978;2023-05-10T15:55:14;17.80;39.20
23532;DHT22;11943;52.270;20.978;2023-05-10T15:57:41;17.80;39.50
23532;DHT22;11943;52.270;20.978;2023-05-10T16:00:07;17.90;40.10
23532;DHT22;11943;52.270;20.978;2023-05-10T16:02:34;17.80;40.10
23532;DHT22;11943;52.270;20.978;2023-05-10T16:04:59;17.70;40.00
23532;DHT22;11943;52.270;20.978;2023-05-10T16:07:25;17.70;40.30
23532;DHT22;11943;52.270;20.978;2023-05-10T16:09:51;17.60;39.90